createdAt,value
2023-04-19T00:00:50.394Z,70.8128
2023-04-19T00:01:51.212Z,70.7993
2023-04-19T00:02:52.261Z,70.8366
2023-04-19T00:03:53.594Z,70.8221
2023-04-19T00:04:54.629Z,70.7924
2023-04-19T00:05:55.786Z,70.7837
2023-04-19T00:06:56.599Z,70.7551
2023-04-19T00:07:57.398Z,70.7437
2023-04-19T00:08:58.334Z,70.7192
2023-04-19T00:09:59.159Z,70.7057
2023-04-19T00:11:00.035Z,70.7070
2023-04-19T00:12:00.829Z,70.6926
2023-04-19T00:13:01.690Z,70.6522
2023-04-19T00:14:02.535Z,70.6532
2023-04-19T00:15:03.354Z,70.6437
2023-04-19T00:16:04.212Z,70.6589
2023-04-19T00:17:05.034Z,70.6882
2023-04-19T00:18:06.043Z,70.7050
2023-04-19T00:19:06.840Z,70.7040
2023-04-19T00:20:07.673Z,70.7093
2023-04-19T00:21:10.344Z,70.7097
2023-04-19T00:22:11.187Z,70.7118
2023-04-19T00:23:12.053Z,70.7087
2023-04-19T00:24:13.382Z,70.7000
2023-04-19T00:25:14.313Z,70.7052
2023-04-19T00:26:15.429Z,70.7251
2023-04-19T00:27:16.248Z,70.7182
2023-04-19T00:28:17.092Z,70.7338
2023-04-19T00:29:17.930Z,70.7480
2023-04-19T00:30:18.720Z,70.7630
2023-04-19T00:31:19.821Z,70.8032
2023-04-19T00:32:20.612Z,70.8662
2023-04-19T00:33:21.728Z,70.8916
2023-04-19T00:34:22.552Z,70.9022
2023-04-19T00:35:23.377Z,70.9082
2023-04-19T00:36:24.424Z,70.9189
2023-04-19T00:37:25.232Z,70.9200
2023-04-19T00:38:26.080Z,70.9530
2023-04-19T00:39:26.907Z,70.9608
2023-04-19T00:40:27.711Z,70.9445
2023-04-19T00:41:28.536Z,70.9618
2023-04-19T00:42:29.366Z,70.9880
2023-04-19T00:43:30.216Z,71.0030
2023-04-19T00:44:31.037Z,71.0303
2023-04-19T00:45:31.893Z,71.0483
2023-04-19T00:46:32.976Z,71.0387
2023-04-19T00:47:33.828Z,71.0716
2023-04-19T00:48:34.683Z,71.1003
2023-04-19T00:49:35.449Z,71.1560
2023-04-19T00:50:36.294Z,71.1413
2023-04-19T00:51:37.124Z,71.1504
2023-04-19T00:52:37.965Z,71.1891
2023-04-19T00:53:39.073Z,71.1843
2023-04-19T00:54:39.894Z,71.2165
2023-04-19T00:55:40.731Z,71.1901
2023-04-19T00:56:41.562Z,71.1759
2023-04-19T00:57:42.388Z,71.2046
2023-04-19T00:58:43.555Z,71.2439
2023-04-19T00:59:44.357Z,71.2376
2023-04-19T01:00:45.205Z,71.3034
2023-04-19T01:01:46.119Z,71.3391
2023-04-19T01:02:47.135Z,71.3421
2023-04-19T01:03:48.091Z,71.3243
2023-04-19T01:04:48.960Z,71.3255
2023-04-19T01:05:50.026Z,71.3244
2023-04-19T01:06:50.834Z,71.3502
2023-04-19T01:07:51.681Z,71.3707
2023-04-19T01:08:52.798Z,71.3810
2023-04-19T01:09:53.630Z,71.4300
2023-04-19T01:10:54.669Z,71.4141
2023-04-19T01:11:55.516Z,71.3936
2023-04-19T01:12:56.348Z,71.3973
2023-04-19T01:13:57.473Z,71.4427
2023-04-19T01:14:58.313Z,71.4438
2023-04-19T01:15:59.383Z,71.4579
2023-04-19T01:17:00.207Z,71.4279
2023-04-19T01:18:01.110Z,71.4139
2023-04-19T01:19:02.212Z,71.4291
2023-04-19T01:20:03.059Z,71.4304
2023-04-19T01:21:04.112Z,71.4412
2023-04-19T01:22:04.945Z,71.4558
2023-04-19T01:23:05.784Z,71.5257
2023-04-19T01:24:06.696Z,71.5817
2023-04-19T01:25:07.494Z,71.6640
2023-04-19T01:26:08.303Z,71.6955
2023-04-19T01:27:09.140Z,71.6693
2023-04-19T01:28:09.969Z,71.6739
2023-04-19T01:29:11.067Z,71.6978
2023-04-19T01:30:11.901Z,71.7117
2023-04-19T01:31:12.751Z,71.7543
2023-04-19T01:32:13.555Z,71.7695
2023-04-19T01:33:14.381Z,71.7941
2023-04-19T01:34:15.391Z,71.8262
2023-04-19T01:35:16.257Z,71.8129
2023-04-19T01:36:17.324Z,71.8073
2023-04-19T01:37:18.197Z,71.8446
2023-04-19T01:38:19.237Z,71.8682
2023-04-19T01:39:20.055Z,71.9304
2023-04-19T01:40:20.856Z,71.9382
2023-04-19T01:41:21.920Z,71.9703
2023-04-19T01:42:22.774Z,72.0037
2023-04-19T01:43:23.797Z,72.0240
2023-04-19T01:44:24.615Z,72.0346
2023-04-19T01:45:25.426Z,72.0764
2023-04-19T01:46:26.250Z,72.0797
2023-04-19T01:47:27.111Z,72.0780
2023-04-19T01:48:27.887Z,72.0701
2023-04-19T01:49:28.741Z,72.0918
2023-04-19T01:50:29.571Z,72.0966
2023-04-19T01:51:30.359Z,72.0789
2023-04-19T01:52:31.177Z,72.0823
2023-04-19T01:53:31.995Z,72.1097
2023-04-19T01:54:32.794Z,72.1216
2023-04-19T01:55:33.617Z,72.1718
2023-04-19T01:56:34.682Z,72.2468
2023-04-19T01:57:35.488Z,72.2919
2023-04-19T01:58:36.308Z,72.3175
2023-04-19T01:59:37.147Z,72.3481
2023-04-19T02:00:38.055Z,72.3893
2023-04-19T02:01:38.840Z,72.4644
2023-04-19T02:02:40.608Z,72.5126
2023-04-19T02:03:40.093Z,72.5784
2023-04-19T02:04:41.171Z,72.5596
2023-04-19T02:05:43.423Z,72.5583
2023-04-19T02:06:44.491Z,72.5748
2023-04-19T02:07:45.341Z,72.6355
2023-04-19T02:08:46.478Z,72.6615
2023-04-19T02:09:47.316Z,72.6494
2023-04-19T02:10:48.560Z,72.6840
2023-04-19T02:11:49.585Z,72.7292
2023-04-19T02:12:50.433Z,72.7215
2023-04-19T02:13:51.270Z,72.7715
2023-04-19T02:14:52.104Z,72.7969
2023-04-19T02:15:52.930Z,72.7716
2023-04-19T02:16:53.775Z,72.7759
2023-04-19T02:18:58.014Z,72.8352
2023-04-19T02:18:58.014Z,72.8964
2023-04-19T02:19:58.865Z,72.8976
2023-04-19T02:20:59.683Z,72.8758
2023-04-19T02:22:00.491Z,72.8941
2023-04-19T02:23:01.371Z,72.8962
2023-04-19T02:24:02.168Z,72.8987
2023-04-19T02:25:03.033Z,72.9080
2023-04-19T02:26:04.095Z,72.9041
2023-04-19T02:27:04.945Z,72.8847
2023-04-19T02:28:05.757Z,72.8917
2023-04-19T02:30:10.144Z,72.9105
2023-04-19T02:30:10.144Z,72.9419
2023-04-19T02:31:10.936Z,72.9595
2023-04-19T02:32:11.710Z,72.9335
2023-04-19T02:33:12.533Z,72.8973
2023-04-19T02:34:14.117Z,72.8728
2023-04-19T02:35:15.085Z,72.9175
2023-04-19T02:36:16.820Z,72.9407
2023-04-19T02:37:17.686Z,72.9140
2023-04-19T02:38:18.955Z,72.8758
2023-04-19T02:39:19.785Z,72.8524
2023-04-19T02:41:22.841Z,72.8474
2023-04-19T02:41:22.841Z,72.9020
2023-04-19T02:42:23.649Z,72.8767
2023-04-19T02:43:24.455Z,72.8552
2023-04-19T02:44:25.743Z,72.8677
2023-04-19T02:46:27.721Z,72.8601
2023-04-19T02:46:27.721Z,72.8729
2023-04-19T02:47:28.586Z,72.8375
2023-04-19T02:48:29.461Z,72.8545
2023-04-19T02:49:31.010Z,72.8464
2023-04-19T02:50:31.813Z,72.8576
2023-04-19T02:51:32.882Z,72.8312
2023-04-19T02:52:33.737Z,72.8436
2023-04-19T02:53:34.647Z,72.8354
2023-04-19T02:54:39.079Z,72.8198
2023-04-19T02:55:40.329Z,72.8212
2023-04-19T02:56:41.168Z,72.8216
2023-04-19T02:57:41.968Z,72.8160
2023-04-19T02:58:42.782Z,72.8147
2023-04-19T02:59:43.570Z,72.8196
2023-04-19T03:00:51.491Z,72.8263
2023-04-19T03:01:52.557Z,72.8430
2023-04-19T03:02:53.537Z,72.8562
2023-04-19T03:03:54.518Z,72.8559
2023-04-19T03:04:55.308Z,72.8487
2023-04-19T03:06:03.949Z,72.8631
2023-04-19T03:07:04.763Z,72.8734
2023-04-19T03:08:05.588Z,72.8891
2023-04-19T03:09:06.504Z,72.8866
2023-04-19T03:10:07.319Z,72.8911
2023-04-19T03:11:08.368Z,72.9004
2023-04-19T03:12:09.203Z,72.9149
2023-04-19T03:13:10.018Z,72.9120
2023-04-19T03:14:10.869Z,72.9347
2023-04-19T03:15:11.687Z,72.9420
2023-04-19T03:16:12.548Z,72.9407
2023-04-19T03:17:13.355Z,72.9698
2023-04-19T03:18:14.173Z,72.9704
2023-04-19T03:19:15.237Z,73.0014
2023-04-19T03:20:16.019Z,73.0183
2023-04-19T03:21:16.854Z,73.0547
2023-04-19T03:22:17.693Z,73.0535
2023-04-19T03:23:18.521Z,73.0704
2023-04-19T03:24:19.345Z,73.0703
2023-04-19T03:25:20.221Z,73.0738
2023-04-19T03:26:21.059Z,73.0937
2023-04-19T03:27:21.888Z,73.1188
2023-04-19T03:28:22.735Z,73.1661
2023-04-19T03:29:23.521Z,73.2293
2023-04-19T03:30:24.338Z,73.2118
2023-04-19T03:31:25.402Z,73.1965
2023-04-19T03:32:26.237Z,73.2344
2023-04-19T03:33:27.023Z,73.2642
2023-04-19T03:34:28.802Z,73.2620
2023-04-19T03:35:29.642Z,73.2768
2023-04-19T03:36:30.466Z,73.3454
2023-04-19T03:37:31.332Z,73.3250
2023-04-19T03:38:32.302Z,73.3118
2023-04-19T03:39:33.110Z,73.3236
2023-04-19T03:40:33.934Z,73.3188
2023-04-19T03:41:35.011Z,73.3211
2023-04-19T03:42:35.860Z,73.3235
2023-04-19T03:43:36.892Z,73.3422
2023-04-19T03:44:37.740Z,73.3685
2023-04-19T03:45:38.573Z,73.4182
2023-04-19T03:46:39.785Z,73.3785
2023-04-19T03:47:40.681Z,73.3740
2023-04-19T03:48:41.461Z,73.3706
2023-04-19T03:49:42.263Z,73.3743
2023-04-19T03:50:43.090Z,73.3826
2023-04-19T03:51:44.276Z,73.3770
2023-04-19T03:52:45.133Z,73.3854
2023-04-19T03:53:46.207Z,73.4123
2023-04-19T03:54:47.016Z,73.4169
2023-04-19T03:55:47.831Z,73.4131
2023-04-19T03:56:48.672Z,73.4500
2023-04-19T03:57:49.559Z,73.4494
2023-04-19T03:58:50.377Z,73.4520
2023-04-19T03:59:51.207Z,73.4708
2023-04-19T04:00:52.026Z,73.4540
2023-04-19T04:01:52.908Z,73.4604
2023-04-19T04:02:53.966Z,73.4590
2023-04-19T04:03:55.113Z,73.4727
2023-04-19T04:04:56.106Z,73.4892
2023-04-19T04:05:56.977Z,73.4710
2023-04-19T04:06:57.805Z,73.4736
2023-04-19T04:07:58.652Z,73.4740
2023-04-19T04:08:59.509Z,73.4793
2023-04-19T04:10:00.309Z,73.5045
2023-04-19T04:11:01.155Z,73.5257
2023-04-19T04:12:02.057Z,73.5478
2023-04-19T04:13:02.871Z,73.5630
2023-04-19T04:14:03.712Z,73.5312
2023-04-19T04:15:04.520Z,73.5177
2023-04-19T04:16:05.356Z,73.5226
2023-04-19T04:17:06.131Z,73.5396
2023-04-19T04:18:08.533Z,73.5258
2023-04-19T04:19:09.926Z,73.5166
2023-04-19T04:20:10.711Z,73.5048
2023-04-19T04:21:11.533Z,73.5082
2023-04-19T04:22:12.346Z,73.5174
2023-04-19T04:23:13.205Z,73.5018
2023-04-19T04:24:14.204Z,73.4952
2023-04-19T04:25:15.094Z,73.4966
2023-04-19T04:26:15.939Z,73.4898
2023-04-19T04:27:16.757Z,73.4761
2023-04-19T04:28:17.593Z,73.4520
2023-04-19T04:29:18.471Z,73.4477
2023-04-19T04:30:19.294Z,73.4302
2023-04-19T04:31:20.211Z,73.4228
2023-04-19T04:32:21.032Z,73.4175
2023-04-19T04:33:22.131Z,73.4114
2023-04-19T04:34:22.944Z,73.3959
2023-04-19T04:35:23.760Z,73.3920
2023-04-19T04:36:24.576Z,73.4026
2023-04-19T04:37:25.382Z,73.4119
2023-04-19T04:38:26.209Z,73.4266
2023-04-19T04:39:27.070Z,73.4297
2023-04-19T04:40:27.886Z,73.4352
2023-04-19T04:41:28.957Z,73.4063
2023-04-19T04:42:29.790Z,73.3959
2023-04-19T04:43:30.665Z,73.3978
2023-04-19T04:44:31.499Z,73.3945
2023-04-19T04:45:32.334Z,73.3771
2023-04-19T04:46:33.165Z,73.3827
2023-04-19T04:47:34.074Z,73.3715
2023-04-19T04:48:34.871Z,73.3671
2023-04-19T04:49:35.700Z,73.3382
2023-04-19T04:50:36.506Z,73.3039
2023-04-19T04:51:37.310Z,73.2755
2023-04-19T04:52:38.150Z,73.2652
2023-04-19T04:53:38.976Z,73.2579
2023-04-19T04:54:39.826Z,73.2456
2023-04-19T04:55:40.662Z,73.2308
2023-04-19T04:56:41.512Z,73.2212
2023-04-19T04:57:42.321Z,73.2077
2023-04-19T04:58:49.492Z,73.2060
2023-04-19T04:59:50.318Z,73.2025
2023-04-19T05:00:51.387Z,73.1932
2023-04-19T05:01:52.166Z,73.1898
2023-04-19T05:02:53.108Z,73.1658
2023-04-19T05:03:54.232Z,73.1521
2023-04-19T05:04:55.080Z,73.1484
2023-04-19T05:05:56.108Z,73.1358
2023-04-19T05:06:56.959Z,73.1278
2023-04-19T05:07:57.826Z,73.1337
2023-04-19T05:08:58.662Z,73.1345
2023-04-19T05:09:59.486Z,73.1023
2023-04-19T05:11:00.378Z,73.0874
2023-04-19T05:12:01.202Z,73.0754
2023-04-19T05:13:02.009Z,73.0752
2023-04-19T05:14:02.838Z,73.0722
2023-04-19T05:15:03.668Z,73.0617
2023-04-19T05:16:04.801Z,73.0514
2023-04-19T05:17:07.157Z,73.0270
2023-04-19T05:18:08.079Z,73.0126
2023-04-19T05:19:08.975Z,72.9982
2023-04-19T05:20:09.830Z,72.9781
2023-04-19T05:21:10.726Z,72.9750
2023-04-19T05:22:11.614Z,72.9612
2023-04-19T05:23:12.484Z,72.9552
2023-04-19T05:24:13.474Z,72.9453
2023-04-19T05:25:14.316Z,72.9394
2023-04-19T05:26:15.233Z,72.9306
2023-04-19T05:27:16.053Z,72.9378
2023-04-19T05:28:16.942Z,72.9370
2023-04-19T05:29:17.821Z,72.9141
2023-04-19T05:30:18.721Z,72.8968
2023-04-19T05:31:19.572Z,72.8808
2023-04-19T05:32:20.525Z,72.8663
2023-04-19T05:33:21.371Z,72.8519
2023-04-19T05:34:22.562Z,72.8408
2023-04-19T05:35:23.580Z,72.8281
2023-04-19T05:36:24.747Z,72.8205
2023-04-19T05:37:25.701Z,72.8112
2023-04-19T05:38:27.400Z,72.7958
2023-04-19T05:39:28.226Z,72.7832
2023-04-19T05:40:29.124Z,72.7424
2023-04-19T05:41:29.998Z,72.6971
2023-04-19T05:42:30.847Z,72.6533
2023-04-19T05:43:31.943Z,72.6055
2023-04-19T05:44:32.811Z,72.5724
2023-04-19T05:45:33.679Z,72.5300
2023-04-19T05:46:34.636Z,72.4862
2023-04-19T05:47:35.590Z,72.4488
2023-04-19T05:48:36.427Z,72.4063
2023-04-19T05:49:37.327Z,72.3690
2023-04-19T05:50:38.181Z,72.3547
2023-04-19T05:51:39.036Z,72.3375
2023-04-19T05:52:39.906Z,72.3062
2023-04-19T05:53:40.795Z,72.2690
2023-04-19T05:54:41.686Z,72.2451
2023-04-19T05:55:42.536Z,72.2200
2023-04-19T05:56:43.414Z,72.2002
2023-04-19T05:57:44.279Z,72.1814
2023-04-19T05:58:45.162Z,72.1595
2023-04-19T05:59:46.007Z,72.1441
2023-04-19T06:00:46.894Z,72.1314
2023-04-19T06:01:47.997Z,72.1231
2023-04-19T06:02:49.015Z,72.1184
2023-04-19T06:03:50.274Z,72.1162
2023-04-19T06:04:51.341Z,72.1118
2023-04-19T06:05:52.248Z,72.0703
2023-04-19T06:06:53.151Z,72.0214
2023-04-19T06:07:55.816Z,71.9655
2023-04-19T06:08:57.194Z,71.9249
2023-04-19T06:09:58.082Z,71.8969
2023-04-19T06:11:02.447Z,71.8711
2023-04-19T06:12:02.157Z,71.8354
2023-04-19T06:13:03.038Z,71.7747
2023-04-19T06:14:03.880Z,71.7305
2023-04-19T06:15:04.775Z,71.6995
2023-04-19T06:16:05.604Z,71.6595
2023-04-19T06:17:06.532Z,71.6212
2023-04-19T06:18:07.409Z,71.5944
2023-04-19T06:19:08.554Z,71.5412
2023-04-19T06:20:09.478Z,71.4900
2023-04-19T06:21:10.559Z,71.4421
2023-04-19T06:22:11.579Z,71.3776
2023-04-19T06:23:12.405Z,71.3515
2023-04-19T06:24:13.426Z,71.3396
2023-04-19T06:25:14.428Z,71.3229
2023-04-19T06:26:15.303Z,71.2919
2023-04-19T06:27:16.166Z,71.2416
2023-04-19T06:28:17.046Z,71.1758
2023-04-19T06:29:17.928Z,71.1457
2023-04-19T06:30:18.801Z,71.1112
2023-04-19T06:31:19.712Z,71.0407
2023-04-19T06:32:20.585Z,70.9551
2023-04-19T06:33:21.432Z,70.8922
2023-04-19T06:34:22.312Z,70.7975
2023-04-19T06:35:23.188Z,70.7733
2023-04-19T06:36:24.081Z,70.7513
2023-04-19T06:37:24.939Z,70.7399
2023-04-19T06:38:25.799Z,70.7341
2023-04-19T06:39:26.659Z,70.6948
2023-04-19T06:40:27.695Z,70.6729
2023-04-19T06:41:28.814Z,70.6557
2023-04-19T06:42:29.658Z,70.6324
2023-04-19T06:43:30.561Z,70.6024
2023-04-19T06:44:31.756Z,70.5822
2023-04-19T06:45:32.861Z,70.5727
2023-04-19T06:46:35.279Z,70.5464
2023-04-19T06:47:36.154Z,70.4753
2023-04-19T06:48:41.120Z,70.4344
2023-04-19T06:49:42.288Z,70.3946
2023-04-19T06:50:43.142Z,70.3621
2023-04-19T06:51:43.992Z,70.3237
2023-04-19T06:52:45.001Z,70.2932
2023-04-19T06:53:46.069Z,70.2591
2023-04-19T06:54:46.949Z,70.2121
2023-04-19T06:55:47.817Z,70.1627
2023-04-19T06:56:48.701Z,70.1246
2023-04-19T06:57:49.548Z,70.0893
2023-04-19T06:58:50.848Z,70.0491
2023-04-19T06:59:51.658Z,70.0165
2023-04-19T07:00:52.728Z,69.9887
2023-04-19T07:01:53.601Z,69.9727
2023-04-19T07:02:54.675Z,69.9556
2023-04-19T07:03:57.361Z,69.9462
2023-04-19T07:04:58.474Z,69.9466
2023-04-19T07:05:59.361Z,69.9449
2023-04-19T07:07:00.190Z,69.9443
2023-04-19T07:08:01.047Z,69.9443
2023-04-19T07:09:02.153Z,69.9411
2023-04-19T07:10:03.014Z,69.9132
2023-04-19T07:11:03.902Z,69.8306
2023-04-19T07:12:04.746Z,69.7221
2023-04-19T07:13:06.044Z,69.6571
2023-04-19T07:14:06.911Z,69.5605
2023-04-19T07:15:07.781Z,69.4676
2023-04-19T07:16:08.686Z,69.3829
2023-04-19T07:17:09.529Z,69.3268
2023-04-19T07:18:10.408Z,69.2717
2023-04-19T07:19:11.347Z,69.2308
2023-04-19T07:20:12.195Z,69.2058
2023-04-19T07:21:13.123Z,69.1702
2023-04-19T07:22:14.967Z,69.1188
2023-04-19T07:23:16.104Z,69.0800
2023-04-19T07:24:17.457Z,69.0624
2023-04-19T07:25:18.567Z,68.9932
2023-04-19T07:26:19.461Z,68.8946
2023-04-19T07:27:20.301Z,68.8329
2023-04-19T07:28:21.190Z,68.7408
2023-04-19T07:29:22.403Z,68.6854
2023-04-19T07:30:23.217Z,68.6165
2023-04-19T07:31:24.082Z,68.5672
2023-04-19T07:32:25.037Z,68.5384
2023-04-19T07:33:27.957Z,68.5098
2023-04-19T07:34:29.341Z,68.4783
2023-04-19T07:35:30.230Z,68.4167
2023-04-19T07:36:31.354Z,68.3570
2023-04-19T07:37:32.469Z,68.2797
2023-04-19T07:38:33.347Z,68.1841
2023-04-19T07:39:34.357Z,68.0335
2023-04-19T07:40:35.191Z,67.8454
2023-04-19T07:41:36.545Z,67.7621
2023-04-19T07:42:37.525Z,67.7263
2023-04-19T07:43:39.395Z,67.6965
2023-04-19T07:44:41.632Z,67.6166
2023-04-19T07:45:42.479Z,67.4777
2023-04-19T07:46:43.674Z,67.4163
2023-04-19T07:47:44.597Z,67.3886
2023-04-19T07:48:45.470Z,67.3848
2023-04-19T07:49:46.532Z,67.3859
2023-04-19T07:50:47.343Z,67.3871
2023-04-19T07:51:48.353Z,67.3885
2023-04-19T07:52:49.195Z,67.3927
2023-04-19T07:53:50.049Z,67.3829
2023-04-19T07:54:51.285Z,67.3233
2023-04-19T07:55:52.152Z,67.2179
2023-04-19T07:56:53.249Z,67.0723
2023-04-19T07:57:54.095Z,66.9205
2023-04-19T07:59:06.777Z,66.7958
2023-04-19T07:59:58.180Z,66.7872
2023-04-19T08:00:59.110Z,66.7962
2023-04-19T08:02:00.228Z,66.8052
2023-04-19T08:03:01.297Z,66.8336
2023-04-19T08:04:02.629Z,66.8345
2023-04-19T08:05:03.966Z,66.8037
2023-04-19T08:06:04.883Z,66.8154
2023-04-19T08:07:05.913Z,66.7442
2023-04-19T08:09:10.201Z,66.6747
2023-04-19T08:09:10.201Z,66.6523
2023-04-19T08:10:11.067Z,66.6106
2023-04-19T08:11:11.925Z,66.5012
2023-04-19T08:12:19.984Z,66.3902
2023-04-19T08:13:16.011Z,66.2863
2023-04-19T08:14:32.299Z,66.1558
2023-04-19T08:15:50.927Z,66.1124
2023-04-19T08:17:05.898Z,66.0923
2023-04-19T08:17:29.807Z,66.0509
2023-04-19T08:18:30.050Z,66.0274
2023-04-19T08:19:30.958Z,65.8776
2023-04-19T08:20:31.865Z,65.8472
2023-04-19T08:21:40.605Z,65.8282
2023-04-19T08:22:35.947Z,65.7481
2023-04-19T08:23:47.264Z,65.6375
2023-04-19T08:24:38.268Z,65.6065
2023-04-19T08:25:39.112Z,65.5807
2023-04-19T08:26:40.199Z,65.5637
2023-04-19T08:27:41.099Z,65.4353
2023-04-19T08:28:42.021Z,65.3304
2023-04-19T08:29:43.086Z,65.2056
2023-04-19T08:30:43.914Z,64.9852
2023-04-19T08:31:46.702Z,64.8007
2023-04-19T08:32:47.583Z,64.6985
2023-04-19T08:33:48.442Z,64.6231
2023-04-19T08:34:49.548Z,64.5686
2023-04-19T08:35:50.400Z,64.4977
2023-04-19T08:37:02.859Z,64.4451
2023-04-19T08:37:54.713Z,64.2970
2023-04-19T08:39:05.349Z,64.1797
2023-04-19T08:39:59.036Z,64.0093
2023-04-19T08:40:59.894Z,64.0224
2023-04-19T08:42:06.714Z,64.1130
2023-04-19T08:43:03.980Z,63.9153
2023-04-19T08:44:04.853Z,63.9526
2023-04-19T08:45:25.485Z,63.7740
2023-04-19T08:46:09.174Z,63.5861
2023-04-19T08:47:11.592Z,63.4345
2023-04-19T08:48:13.253Z,63.5163
2023-04-19T08:49:14.351Z,63.5461
2023-04-19T08:51:17.874Z,63.2584
2023-04-19T08:52:18.716Z,63.2603
2023-04-19T08:53:25.609Z,63.3131
2023-04-19T08:54:19.900Z,63.3756
2023-04-19T08:55:20.754Z,63.3451
2023-04-19T08:56:32.264Z,63.2875
2023-04-19T08:57:24.963Z,63.2657
2023-04-19T08:58:33.290Z,63.2473
2023-04-19T08:59:29.271Z,63.1306
2023-04-19T09:00:30.149Z,63.0525
2023-04-19T09:01:35.538Z,63.0357
2023-04-19T09:02:34.408Z,63.0370
2023-04-19T09:03:44.289Z,63.0564
2023-04-19T09:04:39.041Z,63.0408
2023-04-19T09:05:40.279Z,63.0233
2023-04-19T09:06:41.813Z,62.9196
2023-04-19T09:07:42.853Z,62.7965
2023-04-19T09:08:43.719Z,62.7245
2023-04-19T09:09:55.964Z,62.7147
2023-04-19T09:10:47.800Z,62.7325
2023-04-19T09:11:48.682Z,62.7333
2023-04-19T09:12:49.597Z,62.7180
2023-04-19T09:13:51.263Z,62.7227
2023-04-19T09:15:01.822Z,62.6649
2023-04-19T09:15:56.652Z,62.4810
2023-04-19T09:16:57.470Z,62.2567
2023-04-19T09:17:58.329Z,62.0756
2023-04-19T09:19:08.532Z,61.9639
2023-04-19T09:20:02.633Z,61.8573
2023-04-19T09:21:03.790Z,61.7221
2023-04-19T09:22:04.983Z,61.4719
2023-04-19T09:23:05.890Z,61.2829
2023-04-19T09:24:06.724Z,60.9716
2023-04-19T09:27:10.944Z,60.3720
2023-04-19T09:28:11.829Z,59.9399
2023-04-19T09:29:13.892Z,59.5869
2023-04-19T09:30:21.020Z,59.3849
2023-04-19T09:31:42.669Z,59.0562
2023-04-19T09:32:21.304Z,58.8494
2023-04-19T09:33:26.292Z,58.6220
2023-04-19T09:34:27.462Z,58.5462
2023-04-19T09:35:28.292Z,58.4449
2023-04-19T09:36:29.107Z,58.4945
2023-04-19T09:37:51.377Z,58.5688
2023-04-19T09:38:33.303Z,58.4060
2023-04-19T09:39:34.158Z,58.3267
2023-04-19T09:40:35.056Z,58.2934
2023-04-19T09:41:37.439Z,58.0378
2023-04-19T09:42:51.035Z,57.8772
2023-04-19T09:45:12.649Z,57.6841
2023-04-19T09:45:42.948Z,57.5634
2023-04-19T09:46:43.820Z,57.2803
2023-04-19T09:47:44.763Z,57.1054
2023-04-19T09:48:45.677Z,56.8375
2023-04-19T09:49:49.397Z,56.7946
2023-04-19T09:50:56.800Z,56.8049
2023-04-19T09:51:50.262Z,56.8479
2023-04-19T09:52:51.175Z,56.7741
2023-04-19T09:53:51.996Z,56.5445
2023-04-19T09:54:52.901Z,56.2922
2023-04-19T09:56:01.403Z,56.0953
2023-04-19T09:56:58.409Z,56.0100
2023-04-19T09:58:00.360Z,55.9228
2023-04-19T09:59:12.655Z,55.7327
2023-04-19T10:00:04.448Z,55.6938
2023-04-19T10:01:14.017Z,55.6746
2023-04-19T10:02:08.583Z,55.5498
2023-04-19T10:03:09.671Z,55.5733
2023-04-19T10:04:24.069Z,55.6969
2023-04-19T10:05:20.436Z,55.9083
2023-04-19T10:07:29.942Z,55.9225
2023-04-19T10:08:21.369Z,56.0775
2023-04-19T10:09:22.233Z,56.1179
2023-04-19T10:10:30.263Z,56.1860
2023-04-19T10:11:26.309Z,56.2196
2023-04-19T10:13:27.323Z,56.2520
2023-04-19T10:14:28.206Z,56.2710
2023-04-19T10:15:33.738Z,56.1312
2023-04-19T10:16:32.302Z,56.1220
2023-04-19T10:17:33.642Z,56.0899
2023-04-19T10:18:34.524Z,56.2195
2023-04-19T10:19:35.383Z,56.0611
2023-04-19T10:20:36.274Z,56.0859
2023-04-19T10:21:37.109Z,56.2023
2023-04-19T10:22:37.976Z,56.3629
2023-04-19T10:23:38.825Z,56.3156
2023-04-19T10:24:39.683Z,56.3682
2023-04-19T10:25:40.603Z,56.4731
2023-04-19T10:26:41.438Z,56.3575
2023-04-19T10:27:42.601Z,56.4085
2023-04-19T10:28:43.438Z,56.4155
2023-04-19T10:29:45.797Z,56.3581
2023-04-19T10:30:46.825Z,56.4786
2023-04-19T10:31:47.707Z,56.1758
2023-04-19T10:32:48.864Z,56.2636
2023-04-19T10:33:49.696Z,56.0393
2023-04-19T10:34:50.851Z,55.8327
2023-04-19T10:35:51.730Z,55.7343
2023-04-19T10:36:52.604Z,55.6626
2023-04-19T10:37:53.468Z,55.6905
2023-04-19T10:38:54.323Z,55.5432
2023-04-19T10:39:55.280Z,55.5182
2023-04-19T10:40:56.234Z,55.5089
2023-04-19T10:41:57.342Z,55.4477
2023-04-19T10:42:58.199Z,55.4005
2023-04-19T10:43:59.059Z,55.2077
2023-04-19T10:44:59.915Z,54.9005
2023-04-19T10:46:00.881Z,54.7439
2023-04-19T10:47:01.957Z,54.6360
2023-04-19T10:48:02.828Z,54.4543
2023-04-19T10:49:03.678Z,54.4676
2023-04-19T10:50:04.576Z,54.6015
2023-04-19T10:51:05.485Z,54.7980
2023-04-19T10:52:06.862Z,54.9017
2023-04-19T10:53:07.732Z,54.9512
2023-04-19T10:54:09.132Z,54.9027
2023-04-19T10:55:10.170Z,54.8714
2023-04-19T10:56:11.057Z,54.8781
2023-04-19T10:57:12.045Z,54.7974
2023-04-19T10:58:12.856Z,54.8955
2023-04-19T10:59:13.874Z,55.1148
2023-04-19T11:00:14.730Z,55.2428
2023-04-19T11:01:15.657Z,55.3430
2023-04-19T11:02:16.635Z,55.3417
2023-04-19T11:03:17.636Z,55.3166
2023-04-19T11:04:18.646Z,55.3532
2023-04-19T11:05:20.375Z,55.3666
2023-04-19T11:06:21.282Z,55.4019
2023-04-19T11:07:22.156Z,55.5256
2023-04-19T11:08:23.010Z,55.6009
2023-04-19T11:09:23.885Z,55.6893
2023-04-19T11:10:24.744Z,55.7471
2023-04-19T11:11:25.635Z,55.7312
2023-04-19T11:12:26.494Z,55.6448
2023-04-19T11:13:27.388Z,55.5728
2023-04-19T11:14:28.241Z,55.5930
2023-04-19T11:15:29.108Z,55.4423
2023-04-19T11:16:42.400Z,55.3740
2023-04-19T11:17:33.207Z,55.5164
2023-04-19T11:18:34.076Z,55.6333
2023-04-19T11:19:34.919Z,55.6786
2023-04-19T11:20:35.781Z,55.7423
2023-04-19T11:21:36.694Z,55.7803
2023-04-19T11:22:37.545Z,55.8284
2023-04-19T11:23:38.404Z,55.8667
2023-04-19T11:24:39.269Z,55.7074
2023-04-19T11:25:40.123Z,55.5332
2023-04-19T11:26:41.035Z,55.3639
2023-04-19T11:27:41.884Z,54.9917
2023-04-19T11:28:42.757Z,54.9463
2023-04-19T11:29:43.625Z,54.6807
2023-04-19T11:30:44.485Z,54.7249
2023-04-19T11:31:45.672Z,54.3894
2023-04-19T11:32:46.540Z,54.2495
2023-04-19T11:34:47.946Z,54.1376
2023-04-19T11:34:47.946Z,54.0078
2023-04-19T11:35:48.790Z,53.9090
2023-04-19T11:36:49.691Z,53.8423
2023-04-19T11:37:50.601Z,53.8526
2023-04-19T11:38:51.441Z,53.8362
2023-04-19T11:39:52.284Z,53.7459
2023-04-19T11:40:53.183Z,53.6519
2023-04-19T11:41:54.047Z,53.7157
2023-04-19T11:42:54.870Z,53.8351
2023-04-19T11:43:56.197Z,53.7268
2023-04-19T11:44:57.086Z,53.4997
2023-04-19T11:45:57.943Z,53.4115
2023-04-19T11:47:08.813Z,53.3233
2023-04-19T11:48:10.157Z,53.1695
2023-04-19T11:49:10.990Z,53.2670
2023-04-19T11:50:11.861Z,53.2094
2023-04-19T11:51:12.763Z,53.1902
2023-04-19T11:52:13.637Z,53.2299
2023-04-19T11:53:14.511Z,53.3268
2023-04-19T11:54:15.615Z,53.3796
2023-04-19T11:55:16.578Z,53.3637
2023-04-19T11:56:17.541Z,53.4311
2023-04-19T11:57:18.507Z,53.4767
2023-04-19T11:58:19.401Z,53.5760
2023-04-19T11:59:20.394Z,53.5865
2023-04-19T12:00:21.274Z,53.6177
2023-04-19T12:01:22.182Z,53.6060
2023-04-19T12:02:23.160Z,53.5223
2023-04-19T12:03:25.716Z,53.5270
2023-04-19T12:04:27.215Z,53.5234
2023-04-19T12:05:28.283Z,53.4730
2023-04-19T12:06:29.229Z,53.2291
2023-04-19T12:07:30.186Z,53.1926
2023-04-19T12:08:31.091Z,53.1523
2023-04-19T12:09:32.004Z,52.8071
2023-04-19T12:10:32.944Z,52.9768
2023-04-19T12:11:33.911Z,53.0065
2023-04-19T12:12:34.846Z,52.9430
2023-04-19T12:13:35.722Z,52.7635
2023-04-19T12:14:36.633Z,52.4427
2023-04-19T12:15:37.493Z,52.3839
2023-04-19T12:16:38.437Z,52.4218
2023-04-19T12:17:47.704Z,52.3257
2023-04-19T12:18:42.644Z,52.2410
2023-04-19T12:19:43.528Z,52.3333
2023-04-19T12:20:44.436Z,52.2170
2023-04-19T12:21:45.342Z,52.1096
2023-04-19T12:22:46.238Z,52.0371
2023-04-19T12:23:47.167Z,52.1023
2023-04-19T12:24:48.061Z,52.2173
2023-04-19T12:25:48.942Z,52.3196